createdAt,value
2023-01-10T00:00:17.889Z,75.54
2023-01-10T00:05:17.212Z,74.85
2023-01-10T00:10:19.368Z,74.76
2023-01-10T00:15:19.879Z,74.70
2023-01-10T00:20:19.047Z,74.76
2023-01-10T00:25:19.881Z,74.91
2023-01-10T00:30:20.711Z,75.13
2023-01-10T00:35:20.251Z,75.16
2023-01-10T00:40:19.352Z,75.55
2023-01-10T00:45:20.056Z,75.77
2023-01-10T00:50:19.277Z,76.10
2023-01-10T00:55:18.372Z,76.19
2023-01-10T01:00:19.279Z,75.91
2023-01-10T01:05:18.665Z,75.40
2023-01-10T01:10:37.470Z,75.24
2023-01-10T01:15:40.302Z,75.47
2023-01-10T01:20:40.634Z,75.22
2023-01-10T01:25:39.680Z,75.24
2023-01-10T01:30:40.195Z,75.32
2023-01-10T01:35:42.886Z,75.70
2023-01-10T01:40:42.359Z,75.37
2023-01-10T01:45:42.784Z,75.02
2023-01-10T01:50:46.559Z,74.99
2023-01-10T01:55:46.509Z,74.70
2023-01-10T02:00:46.867Z,74.89
2023-01-10T02:05:46.601Z,75.49
2023-01-10T02:10:52.474Z,75.19
2023-01-10T02:15:52.790Z,75.63
2023-01-10T02:21:19.590Z,77.54
2023-01-10T02:26:47.467Z,78.18
2023-01-10T02:32:13.256Z,78.82
2023-01-10T02:37:17.896Z,78.74
2023-01-10T02:42:25.257Z,79.34
2023-01-10T02:47:25.511Z,78.90
2023-01-10T02:52:27.240Z,79.06
2023-01-10T02:57:45.497Z,79.48
2023-01-10T03:02:58.816Z,78.53
2023-01-10T03:08:04.661Z,78.86
2023-01-10T03:13:08.428Z,78.95
2023-01-10T03:18:12.064Z,79.58
2023-01-10T03:23:13.522Z,79.76
2023-01-10T03:28:17.455Z,79.08
2023-01-10T03:33:22.540Z,78.80
2023-01-10T03:38:26.112Z,79.43
2023-01-10T03:43:47.153Z,80.09
2023-01-10T03:48:49.740Z,80.87
2023-01-10T03:53:48.882Z,80.79
2023-01-10T03:58:47.766Z,80.54
2023-01-10T04:03:48.309Z,81.63
2023-01-10T04:08:49.538Z,82.61
2023-01-10T04:13:48.955Z,83.29
2023-01-10T04:18:49.296Z,83.40
2023-01-10T04:23:48.517Z,83.13
2023-01-10T04:28:47.380Z,83.64
2023-01-10T04:33:46.339Z,83.84
2023-01-10T04:38:46.693Z,84.54
2023-01-10T04:43:45.712Z,85.10
2023-01-10T04:48:44.768Z,85.12
2023-01-10T04:53:43.846Z,86.62
2023-01-10T04:58:44.179Z,85.27
2023-01-10T05:03:43.190Z,85.67
2023-01-10T05:08:42.239Z,85.29
2023-01-10T05:13:41.268Z,85.23
2023-01-10T05:18:41.629Z,84.27
2023-01-10T05:23:42.373Z,84.16
2023-01-10T05:28:41.535Z,84.38
2023-01-10T05:33:45.489Z,84.67
2023-01-10T05:38:44.524Z,84.94
2023-01-10T05:43:43.391Z,85.49
2023-01-10T05:48:43.810Z,84.85
2023-01-10T05:53:43.595Z,84.90
2023-01-10T05:58:42.457Z,85.06
2023-01-10T06:03:41.309Z,83.75
2023-01-10T06:08:41.539Z,83.90
2023-01-10T06:13:40.573Z,83.22
2023-01-10T06:18:39.368Z,84.04
2023-01-10T06:23:39.496Z,84.07
2023-01-10T06:28:41.224Z,83.84
2023-01-10T06:33:41.600Z,83.69
2023-01-10T06:38:40.473Z,83.55
2023-01-10T06:43:41.063Z,82.96
2023-01-10T06:48:40.137Z,83.24
2023-01-10T06:53:39.072Z,83.15
2023-01-10T06:58:38.765Z,82.96
2023-01-10T07:03:40.451Z,82.45
2023-01-10T07:08:39.793Z,82.75
2023-01-10T07:13:39.078Z,83.10
2023-01-10T07:18:40.607Z,83.71
2023-01-10T07:23:39.731Z,85.15
2023-01-10T07:28:39.168Z,84.18
2023-01-10T07:33:39.417Z,83.82
2023-01-10T07:38:39.295Z,83.25
2023-01-10T07:43:38.653Z,82.61
2023-01-10T07:48:37.938Z,83.54
2023-01-10T07:53:38.155Z,82.96
2023-01-10T07:58:37.648Z,82.64
2023-01-10T08:03:36.899Z,83.58
2023-01-10T08:08:37.529Z,82.94
2023-01-10T08:13:36.447Z,82.31
2023-01-10T08:18:35.952Z,80.99
2023-01-10T08:23:35.215Z,81.06
2023-01-10T08:28:35.476Z,81.38
2023-01-10T08:33:34.385Z,80.79
2023-01-10T08:38:33.536Z,79.93
2023-01-10T08:43:32.301Z,80.51
2023-01-10T08:48:32.577Z,80.31
2023-01-10T08:53:32.122Z,80.79
2023-01-10T08:58:30.980Z,80.55
2023-01-10T09:03:29.944Z,81.63
2023-01-10T09:08:30.373Z,82.87
2023-01-10T09:13:29.590Z,83.05
2023-01-10T09:18:28.515Z,83.30
2023-01-10T09:23:27.319Z,83.54
2023-01-10T09:28:27.889Z,84.21
2023-01-10T09:33:35.020Z,84.53
2023-01-10T09:38:40.495Z,84.13
2023-01-10T09:43:52.795Z,83.66
2023-01-10T09:48:59.751Z,83.82
2023-01-10T09:54:11.021Z,84.38
2023-01-10T09:59:18.294Z,84.10
2023-01-10T10:04:24.924Z,85.14
2023-01-10T10:09:27.305Z,84.42
2023-01-10T10:14:44.951Z,85.14
2023-01-10T10:19:57.230Z,85.89
2023-01-10T10:25:04.525Z,85.22
2023-01-10T10:30:32.528Z,84.66
2023-01-10T10:35:37.306Z,84.20
2023-01-10T10:40:40.274Z,84.71
2023-01-10T10:45:46.981Z,84.62
2023-01-10T10:50:58.199Z,85.25
2023-01-10T10:55:58.329Z,84.55
2023-01-10T11:00:59.461Z,84.09
2023-01-10T11:06:00.608Z,84.18
2023-01-10T11:11:03.862Z,85.93
2023-01-10T11:16:06.277Z,85.94
2023-01-10T11:21:08.863Z,87.23
2023-01-10T11:26:10.112Z,87.28
2023-01-10T11:31:13.327Z,91.03
2023-01-10T11:36:14.073Z,92.49
2023-01-10T11:41:27.438Z,91.58
2023-01-10T11:46:27.545Z,89.07
2023-01-10T11:51:28.865Z,91.23
2023-01-10T11:56:30.634Z,92.02
2023-01-10T12:01:36.253Z,94.85
2023-01-10T12:06:35.686Z,94.92
2023-01-10T12:11:36.060Z,94.14
2023-01-10T12:16:39.342Z,93.05
2023-01-10T12:21:43.954Z,92.05
2023-01-10T12:26:45.122Z,92.67
2023-01-10T12:31:52.361Z,92.39
2023-01-10T12:37:02.598Z,93.97
2023-01-10T12:42:32.940Z,93.52
2023-01-10T12:47:40.216Z,93.56
2023-01-10T12:52:46.973Z,92.72
2023-01-10T12:57:52.035Z,90.98
2023-01-10T13:02:58.909Z,90.74
2023-01-10T13:08:04.378Z,90.28
2023-01-10T13:13:07.696Z,90.31
2023-01-10T13:18:17.871Z,89.06
2023-01-10T13:23:30.126Z,89.29
2023-01-10T13:28:30.709Z,88.42
2023-01-10T13:33:32.913Z,88.12
2023-01-10T13:38:39.773Z,88.82
2023-01-10T13:44:04.010Z,88.86
2023-01-10T13:49:47.628Z,89.25
2023-01-10T13:55:03.917Z,88.20
2023-01-10T14:00:22.377Z,88.70
2023-01-10T14:05:24.288Z,88.72
2023-01-10T14:10:27.253Z,89.29
2023-01-10T14:15:34.380Z,88.28
2023-01-10T14:20:37.709Z,89.81
2023-01-10T14:25:39.599Z,89.87
2023-01-10T14:30:41.364Z,90.31
2023-01-10T14:35:44.631Z,89.69
2023-01-10T14:40:47.228Z,90.45
2023-01-10T14:45:53.042Z,90.17
2023-01-10T14:50:52.008Z,89.53
2023-01-10T14:55:55.461Z,89.22
2023-01-10T15:00:56.319Z,88.25
2023-01-10T15:05:58.857Z,88.59
2023-01-10T15:11:07.561Z,87.83
2023-01-10T15:16:08.016Z,89.27
2023-01-10T15:21:08.696Z,88.62
2023-01-10T15:26:10.980Z,88.30
2023-01-10T15:31:11.576Z,88.00
2023-01-10T15:36:17.068Z,87.18
2023-01-10T15:41:22.129Z,86.90
2023-01-10T15:46:25.704Z,85.97
2023-01-10T15:51:30.014Z,85.81
2023-01-10T15:56:38.122Z,86.52
2023-01-10T16:01:37.791Z,85.82
2023-01-10T16:06:43.032Z,85.41
2023-01-10T16:12:09.968Z,86.06
2023-01-10T16:17:09.250Z,85.34
2023-01-10T16:22:08.439Z,86.24
2023-01-10T16:27:16.039Z,85.00
2023-01-10T16:32:20.191Z,84.71
2023-01-10T16:37:19.177Z,82.48
2023-01-10T16:42:36.679Z,82.72
2023-01-10T16:47:35.674Z,83.31
2023-01-10T16:52:34.849Z,83.21
2023-01-10T16:57:39.578Z,83.42
2023-01-10T17:02:40.880Z,83.19
2023-01-10T17:07:39.795Z,85.39
2023-01-10T17:12:42.398Z,85.89
2023-01-10T17:17:44.431Z,85.32
2023-01-10T17:22:46.358Z,84.80
2023-01-10T17:27:47.196Z,83.93
2023-01-10T17:32:46.246Z,83.87
2023-01-10T17:37:50.540Z,84.33
2023-01-10T17:42:51.079Z,85.47
2023-01-10T17:47:55.533Z,85.55
2023-01-10T17:52:56.628Z,85.61
2023-01-10T17:57:57.195Z,85.45
2023-01-10T18:02:59.950Z,86.71
2023-01-10T18:08:01.057Z,84.62
2023-01-10T18:13:03.488Z,83.96
2023-01-10T18:18:04.573Z,83.02
2023-01-10T18:23:25.830Z,82.42
2023-01-10T18:28:40.144Z,81.99
2023-01-10T18:33:39.915Z,81.65
2023-01-10T18:38:39.065Z,83.43
2023-01-10T18:43:41.647Z,84.15
2023-01-10T18:48:41.036Z,84.62
2023-01-10T18:54:23.413Z,83.83
2023-01-10T19:00:12.122Z,83.78
2023-01-10T19:06:19.616Z,83.38
2023-01-10T19:11:25.045Z,83.55
2023-01-10T19:16:30.116Z,83.60
2023-01-10T19:21:37.961Z,83.15
2023-01-10T19:26:37.902Z,82.29
2023-01-10T19:31:38.905Z,83.23
2023-01-10T19:36:39.598Z,83.72
2023-01-10T19:41:39.626Z,84.19
2023-01-10T19:46:45.104Z,84.43
2023-01-10T19:51:47.702Z,84.51
2023-01-10T19:56:46.807Z,83.29
2023-01-10T20:01:49.346Z,82.15
2023-01-10T20:06:52.973Z,83.20
2023-01-10T20:11:53.350Z,84.23
2023-01-10T20:16:55.900Z,83.59
2023-01-10T20:21:59.262Z,84.24
2023-01-10T20:27:04.599Z,83.63
2023-01-10T20:32:05.668Z,82.61
2023-01-10T20:37:05.656Z,83.81
2023-01-10T20:42:04.516Z,84.05
2023-01-10T20:47:04.740Z,86.30
2023-01-10T20:52:06.365Z,85.53
2023-01-10T20:57:05.199Z,84.62
2023-01-10T21:02:05.579Z,85.63
2023-01-10T21:07:05.840Z,84.22
2023-01-10T21:12:22.136Z,84.17
2023-01-10T21:17:26.008Z,84.46
2023-01-10T21:22:24.864Z,84.09
2023-01-10T21:27:24.517Z,85.69
2023-01-10T21:32:29.787Z,85.90
2023-01-10T21:37:28.757Z,87.09
2023-01-10T21:42:38.397Z,86.17
2023-01-10T21:47:38.970Z,84.90
2023-01-10T21:52:38.142Z,84.31
2023-01-10T21:57:39.414Z,84.48
2023-01-10T22:02:39.988Z,84.90
2023-01-10T22:07:39.335Z,86.91
2023-01-10T22:12:38.134Z,86.60
2023-01-10T22:17:36.913Z,86.28
2023-01-10T22:22:38.446Z,85.89
2023-01-10T22:27:37.362Z,85.08
2023-01-10T22:32:36.429Z,85.95
2023-01-10T22:37:36.657Z,84.49
2023-01-10T22:42:35.531Z,84.42
2023-01-10T22:47:34.440Z,85.20
2023-01-10T22:52:33.907Z,83.78
2023-01-10T22:57:46.359Z,83.80
2023-01-10T23:02:45.687Z,83.86
2023-01-10T23:07:44.539Z,84.13
2023-01-10T23:12:44.878Z,83.63
2023-01-10T23:17:43.701Z,83.40
2023-01-10T23:22:42.510Z,82.94
2023-01-10T23:27:41.388Z,83.13
2023-01-10T23:32:41.553Z,83.16
2023-01-10T23:37:40.367Z,83.86
2023-01-10T23:42:39.169Z,83.53
2023-01-10T23:47:37.962Z,83.41
2023-01-10T23:52:38.202Z,82.64
2023-01-10T23:57:37.033Z,82.22
